Time,TemperatureF,DewpointF,PressureIn,WindDirection,WindDirectionDegrees,WindSpeedMPH,WindSpeedGustMPH,Humidity,HourlyPrecipIn,Conditions,Clouds,dailyrainin,SoftwareType,DateUTC
2013-04-04 00:02:00,39.0,11.0,-100.00,SSW,195,6.0,7.0,31,0.00,,,-99.99,,2013-04-04 05:02:00,
2013-04-04 00:12:00,38.0,10.0,-100.00,SSW,195,6.0,7.0,31,0.00,,,-99.99,,2013-04-04 05:12:00,
2013-04-04 00:23:00,38.0,11.0,-100.00,SSW,200,6.0,7.0,32,0.00,,,-99.99,,2013-04-04 05:23:00,
2013-04-04 00:32:00,38.0,11.0,-100.00,SSW,195,7.0,8.0,33,0.00,,,-99.99,,2013-04-04 05:32:00,
2013-04-04 00:42:00,38.0,11.0,-100.00,SSW,195,7.0,8.0,33,0.00,,,-99.99,,2013-04-04 05:42:00,
2013-04-04 00:52:00,38.0,11.0,-100.00,SSW,195,7.0,7.0,33,0.00,,,-99.99,,2013-04-04 05:52:00,
2013-04-04 01:02:00,38.0,11.0,-100.00,SSW,195,7.0,7.0,33,0.00,,,-99.99,,2013-04-04 06:02:00,
2013-04-04 01:12:00,37.0,11.0,-100.00,SSW,195,7.0,7.0,33,0.00,,,-99.99,,2013-04-04 06:12:00,
2013-04-04 01:22:00,37.0,12.0,-100.00,SSW,200,7.0,7.0,34,0.00,,,-99.99,,2013-04-04 06:22:00,
2013-04-04 01:32:00,36.0,11.0,-100.00,SSW,205,7.0,7.0,35,0.00,,,-99.99,,2013-04-04 06:32:00,
2013-04-04 01:42:00,36.0,11.0,-100.00,SSW,205,7.0,7.0,35,0.00,,,-99.99,,2013-04-04 06:42:00,
2013-04-04 01:52:00,35.0,11.0,-100.00,SSW,205,7.0,7.0,37,0.00,,,-99.99,,2013-04-04 06:52:00,
2013-04-04 02:02:00,35.0,11.0,-100.00,SSW,205,7.0,7.0,37,0.00,,,-99.99,,2013-04-04 07:02:00,
2013-04-04 02:12:00,35.0,11.0,-100.00,SSW,210,7.0,7.0,37,0.00,,,-99.99,,2013-04-04 07:12:00,
2013-04-04 02:22:00,35.0,12.0,-100.00,SSW,210,7.0,7.0,37,0.00,,,-99.99,,2013-04-04 07:22:00,
2013-04-04 02:32:00,35.0,12.0,-100.00,SW,220,7.0,7.0,38,0.00,,,-99.99,,2013-04-04 07:32:00,
2013-04-04 02:42:00,35.0,12.0,-100.00,SW,220,7.0,7.0,38,0.00,,,-99.99,,2013-04-04 07:42:00,
2013-04-04 02:52:00,36.0,13.0,-100.00,SW,225,7.0,9.0,38,0.00,,,-99.99,,2013-04-04 07:52:00,
2013-04-04 03:02:00,36.0,13.0,-100.00,SW,225,7.0,9.0,38,0.00,,,-99.99,,2013-04-04 08:02:00,
2013-04-04 03:12:00,36.0,13.0,-100.00,SW,230,6.0,9.0,38,0.00,,,-99.99,,2013-04-04 08:12:00,
2013-04-04 03:22:00,36.0,13.0,-100.00,SW,225,6.0,8.0,39,0.00,,,-99.99,,2013-04-04 08:22:00,
2013-04-04 03:32:00,35.0,13.0,-100.00,SW,225,6.0,9.0,40,0.00,,,-99.99,,2013-04-04 08:32:00,
2013-04-04 03:42:00,35.0,13.0,-100.00,SW,225,6.0,9.0,40,0.00,,,-99.99,,2013-04-04 08:42:00,
2013-04-04 03:52:00,35.0,14.0,-100.00,SW,225,6.0,10.0,42,0.00,,,-99.99,,2013-04-04 08:52:00,
2013-04-04 04:02:00,35.0,14.0,-100.00,SW,225,6.0,10.0,42,0.00,,,-99.99,,2013-04-04 09:02:00,
2013-04-04 04:12:00,34.0,14.0,-100.00,SW,225,6.0,9.0,42,0.00,,,-99.99,,2013-04-04 09:12:00,
2013-04-04 04:22:00,34.0,15.0,-100.00,SW,230,6.0,7.0,43,0.00,,,-99.99,,2013-04-04 09:22:00,
2013-04-04 04:33:00,34.0,15.0,-100.00,SW,235,6.0,8.0,45,0.00,,,-99.99,,2013-04-04 09:33:00,
2013-04-04 04:43:00,34.0,15.0,-100.00,SW,235,6.0,8.0,45,0.00,,,-99.99,,2013-04-04 09:43:00,
2013-04-04 04:53:00,34.0,16.0,-100.00,SW,230,6.0,7.0,46,0.00,,,-99.99,,2013-04-04 09:53:00,
2013-04-04 05:04:00,34.0,16.0,-100.00,SW,230,6.0,7.0,46,0.00,,,-99.99,,2013-04-04 10:04:00,
2013-04-04 05:12:00,34.0,16.0,-100.00,SW,225,6.0,8.0,47,0.00,,,-99.99,,2013-04-04 10:12:00,
2013-04-04 05:23:00,35.0,17.0,-100.00,SW,230,6.0,9.0,47,0.00,,,-99.99,,2013-04-04 10:23:00,
2013-04-04 05:33:00,35.0,17.0,-100.00,SW,225,6.0,9.0,48,0.00,,,-99.99,,2013-04-04 10:33:00,
2013-04-04 05:42:00,35.0,17.0,-100.00,SW,225,6.0,9.0,48,0.00,,,-99.99,,2013-04-04 10:42:00,
2013-04-04 05:53:00,35.0,17.0,-100.00,WSW,240,7.0,10.0,48,0.00,,,-99.99,,2013-04-04 10:53:00,
2013-04-04 06:02:00,35.0,17.0,-100.00,WSW,240,7.0,10.0,48,0.00,,,-99.99,,2013-04-04 11:02:00,
2013-04-04 06:12:00,35.0,17.0,-100.00,SW,235,7.0,9.0,48,0.00,,,-99.99,,2013-04-04 11:12:00,
2013-04-04 06:22:00,34.0,17.0,-100.00,SW,235,7.0,10.0,49,0.00,,,-99.99,,2013-04-04 11:22:00,
2013-04-04 06:32:00,34.0,18.0,-100.00,WSW,245,7.0,10.0,51,0.00,,,-99.99,,2013-04-04 11:32:00,
2013-04-04 06:42:00,34.0,18.0,-100.00,WSW,245,7.0,10.0,51,0.00,,,-99.99,,2013-04-04 11:42:00,
2013-04-04 06:53:00,33.0,18.0,-100.00,WSW,250,7.0,9.0,52,0.00,,,-99.99,,2013-04-04 11:53:00,
2013-04-04 07:02:00,33.0,18.0,-100.00,WSW,250,7.0,9.0,52,0.00,,,-99.99,,2013-04-04 12:02:00,
2013-04-04 07:12:00,33.0,18.0,-100.00,SW,235,6.0,8.0,53,0.00,,,-99.99,,2013-04-04 12:12:00,
2013-04-04 07:22:00,34.0,18.0,-100.00,WSW,245,6.0,7.0,53,0.00,,,-99.99,,2013-04-04 12:22:00,
2013-04-04 07:32:00,35.0,20.0,-100.00,WSW,240,6.0,9.0,52,0.00,,,-99.99,,2013-04-04 12:32:00,
2013-04-04 07:42:00,35.0,20.0,-100.00,WSW,240,6.0,9.0,52,0.00,,,-99.99,,2013-04-04 12:42:00,
2013-04-04 07:52:00,38.0,22.0,-100.00,WSW,250,7.0,10.0,51,0.00,,,-99.99,,2013-04-04 12:52:00,
2013-04-04 08:02:00,38.0,22.0,-100.00,WSW,250,7.0,10.0,51,0.00,,,-99.99,,2013-04-04 13:02:00,
2013-04-04 08:12:00,38.0,21.0,-100.00,WSW,255,6.0,10.0,50,0.00,,,-99.99,,2013-04-04 13:12:00,
2013-04-04 08:22:00,38.0,21.0,-100.00,WSW,250,6.0,9.0,50,0.00,,,-99.99,,2013-04-04 13:22:00,
2013-04-04 08:32:00,39.0,22.0,-100.00,WSW,250,8.0,10.0,50,0.00,,,-99.99,,2013-04-04 13:32:00,
2013-04-04 08:42:00,39.0,22.0,-100.00,WSW,250,8.0,10.0,50,0.00,,,-99.99,,2013-04-04 13:42:00,
2013-04-04 08:52:00,42.0,23.0,-100.00,WSW,250,8.0,11.0,46,0.00,,,-99.99,,2013-04-04 13:52:00,
2013-04-04 09:03:00,42.0,23.0,-100.00,WSW,250,8.0,11.0,46,0.00,,,-99.99,,2013-04-04 14:03:00,
2013-04-04 09:12:00,43.0,24.0,-100.00,West,260,9.0,11.0,45,0.00,,,-99.99,,2013-04-04 14:12:00,
2013-04-04 09:22:00,44.0,24.0,-100.00,West,270,9.0,12.0,44,0.00,,,-99.99,,2013-04-04 14:22:00,
2013-04-04 09:32:00,47.0,25.0,-100.00,West,275,7.0,11.0,41,0.00,,,-99.99,,2013-04-04 14:32:00,
2013-04-04 09:42:00,47.0,25.0,-100.00,West,275,7.0,11.0,41,0.00,,,-99.99,,2013-04-04 14:42:00,
2013-04-04 09:52:00,48.0,24.0,-100.00,WNW,285,9.0,13.0,38,0.00,,,-99.99,,2013-04-04 14:52:00,
2013-04-04 10:02:00,48.0,24.0,-100.00,WNW,285,9.0,13.0,38,0.00,,,-99.99,,2013-04-04 15:02:00,
2013-04-04 10:12:00,49.0,24.0,-100.00,West,270,10.0,14.0,37,0.00,,,-99.99,,2013-04-04 15:12:00,
2013-04-04 10:22:00,49.0,24.0,-100.00,West,275,9.0,13.0,36,0.00,,,-99.99,,2013-04-04 15:22:00,
2013-04-04 10:33:00,50.0,24.0,-100.00,West,270,10.0,15.0,35,0.00,,,-99.99,,2013-04-04 15:33:00,
2013-04-04 10:43:00,50.0,24.0,-100.00,West,270,10.0,15.0,35,0.00,,,-99.99,,2013-04-04 15:43:00,
2013-04-04 10:53:00,51.0,24.0,-100.00,West,280,10.0,16.0,34,0.00,,,-99.99,,2013-04-04 15:53:00,
2013-04-04 11:03:00,51.0,24.0,-100.00,West,280,10.0,16.0,34,0.00,,,-99.99,,2013-04-04 16:03:00,
2013-04-04 11:12:00,51.0,23.0,-100.00,WNW,290,11.0,20.0,33,0.00,,,-99.99,,2013-04-04 16:12:00,
2013-04-04 11:23:00,52.0,23.0,-100.00,WNW,290,12.0,19.0,32,0.00,,,-99.99,,2013-04-04 16:23:00,
2013-04-04 11:31:00,53.0,24.0,-100.00,NW,315,12.0,-999.0,32,0.00,,,-99.99,,2013-04-04 16:31:00,
2013-04-04 11:32:00,52.0,23.0,-100.00,NW,310,9.0,21.0,32,0.00,,,-99.99,,2013-04-04 16:32:00,
2013-04-04 11:42:00,52.0,23.0,-100.00,NW,310,9.0,21.0,32,0.00,,,-99.99,,2013-04-04 16:42:00,
2013-04-04 11:53:00,53.0,24.0,-100.00,NW,315,12.0,-999.0,32,0.00,,,-99.99,,2013-04-04 16:53:00,
2013-04-04 12:03:00,53.0,24.0,-100.00,NW,315,12.0,-999.0,32,0.00,,,-99.99,,2013-04-04 17:03:00,
2013-04-04 12:13:00,53.0,24.0,-100.00,NW,315,12.0,-999.0,32,0.00,,,-99.99,,2013-04-04 17:13:00,
2013-04-04 12:22:00,53.0,24.0,-100.00,NW,315,12.0,-999.0,32,0.00,,,-99.99,,2013-04-04 17:22:00,
2013-04-04 16:43:00,62.0,28.0,-100.00,NW,315,12.0,-999.0,26,0.00,,,-99.99,,2013-04-04 21:43:00,
2013-04-04 16:53:00,62.0,27.0,-100.00,NW,325,8.0,17.0,26,0.00,,,-99.99,,2013-04-04 21:53:00,
2013-04-04 17:03:00,62.0,27.0,-100.00,NW,325,8.0,17.0,26,0.00,,,-99.99,,2013-04-04 22:03:00,
2013-04-04 17:12:00,62.0,28.0,-100.00,NW,320,9.0,21.0,26,0.00,,,-99.99,,2013-04-04 22:12:00,
2013-04-04 17:23:00,62.0,27.0,-100.00,WNW,300,14.0,16.0,26,0.00,,,-99.99,,2013-04-04 22:23:00,
2013-04-04 17:33:00,61.0,27.0,-100.00,NW,320,10.0,17.0,27,0.00,,,-99.99,,2013-04-04 22:33:00,
2013-04-04 17:42:00,61.0,27.0,-100.00,NW,320,10.0,17.0,27,0.00,,,-99.99,,2013-04-04 22:42:00,
2013-04-04 17:52:00,60.0,27.0,-100.00,NNW,335,11.0,16.0,28,0.00,,,-99.99,,2013-04-04 22:52:00,
2013-04-04 18:02:00,60.0,27.0,-100.00,NNW,335,11.0,16.0,28,0.00,,,-99.99,,2013-04-04 23:02:00,
2013-04-04 18:12:00,60.0,27.0,-100.00,NNW,345,10.0,14.0,28,0.00,,,-99.99,,2013-04-04 23:12:00,
2013-04-04 18:22:00,59.0,27.0,-100.00,NNW,335,12.0,15.0,29,0.00,,,-99.99,,2013-04-04 23:22:00,
2013-04-04 18:32:00,60.0,28.0,-100.00,NNW,335,7.0,11.0,30,0.00,,,-99.99,,2013-04-04 23:32:00,
2013-04-04 18:42:00,60.0,28.0,-100.00,NNW,335,7.0,11.0,30,0.00,,,-99.99,,2013-04-04 23:42:00,
2013-04-04 18:52:00,59.0,29.0,-100.00,NNW,335,10.0,12.0,31,0.00,,,-99.99,,2013-04-04 23:52:00,
2013-04-04 19:02:00,59.0,29.0,-100.00,NNW,335,10.0,12.0,31,0.00,,,-99.99,,2013-04-05 00:02:00,
2013-04-04 19:12:00,59.0,29.0,-100.00,NNW,335,9.0,13.0,31,0.00,,,-99.99,,2013-04-05 00:12:00,
2013-04-04 19:22:00,58.0,29.0,-100.00,North,355,8.0,11.0,33,0.00,,,-99.99,,2013-04-05 00:22:00,
2013-04-04 19:32:00,55.0,30.0,-100.00,North,0,7.0,9.0,37,0.00,,,-99.99,,2013-04-05 00:32:00,
2013-04-04 19:42:00,55.0,30.0,-100.00,North,0,7.0,9.0,37,0.00,,,-99.99,,2013-04-05 00:42:00,
2013-04-04 19:52:00,54.0,32.0,-100.00,North,0,9.0,10.0,42,0.00,,,-99.99,,2013-04-05 00:52:00,
2013-04-04 20:02:00,54.0,32.0,-100.00,North,0,9.0,10.0,42,0.00,,,-99.99,,2013-04-05 01:02:00,
2013-04-04 20:12:00,53.0,32.0,-100.00,North,0,9.0,11.0,45,0.00,,,-99.99,,2013-04-05 01:12:00,
2013-04-04 20:22:00,51.0,33.0,-100.00,North,10,9.0,10.0,49,0.00,,,-99.99,,2013-04-05 01:22:00,
2013-04-04 20:32:00,50.0,35.0,-100.00,North,5,8.0,11.0,55,0.00,,,-99.99,,2013-04-05 01:32:00,
2013-04-04 20:42:00,50.0,35.0,-100.00,North,5,8.0,11.0,55,0.00,,,-99.99,,2013-04-05 01:42:00,
2013-04-04 20:52:00,49.0,36.0,-100.00,North,5,7.0,10.0,60,0.00,,,-99.99,,2013-04-05 01:52:00,
2013-04-04 21:03:00,49.0,36.0,-100.00,North,5,7.0,10.0,60,0.00,,,-99.99,,2013-04-05 02:03:00,
2013-04-04 21:12:00,48.0,36.0,-100.00,North,0,7.0,9.0,62,0.00,,,-99.99,,2013-04-05 02:12:00,
2013-04-04 21:22:00,48.0,36.0,-100.00,North,10,9.0,11.0,64,0.00,,,-99.99,,2013-04-05 02:22:00,
2013-04-04 21:32:00,47.0,37.0,-100.00,North,5,10.0,12.0,67,0.00,,,-99.99,,2013-04-05 02:32:00,
2013-04-04 21:42:00,47.0,37.0,-100.00,North,5,10.0,12.0,67,0.00,,,-99.99,,2013-04-05 02:42:00,
2013-04-04 21:52:00,46.0,36.0,-100.00,North,5,9.0,12.0,68,0.00,,,-99.99,,2013-04-05 02:52:00,
2013-04-04 22:02:00,46.0,36.0,-100.00,North,5,9.0,12.0,68,0.00,,,-99.99,,2013-04-05 03:02:00,
2013-04-04 22:12:00,46.0,36.0,-100.00,North,5,9.0,11.0,69,0.00,,,-99.99,,2013-04-05 03:12:00,
2013-04-04 22:22:00,46.0,36.0,-100.00,North,5,10.0,11.0,70,0.00,,,-99.99,,2013-04-05 03:22:00,
2013-04-04 22:32:00,45.0,36.0,-100.00,NNE,20,11.0,13.0,71,0.00,,,-99.99,,2013-04-05 03:32:00,
2013-04-04 22:43:00,45.0,36.0,-100.00,NNE,20,11.0,13.0,71,0.00,,,-99.99,,2013-04-05 03:43:00,
2013-04-04 22:53:00,42.0,35.0,-100.00,NNE,25,12.0,14.0,75,0.00,,,-99.99,,2013-04-05 03:53:00,
2013-04-04 23:02:00,42.0,35.0,-100.00,NNE,25,12.0,14.0,75,0.00,,,-99.99,,2013-04-05 04:02:00,
2013-04-04 23:12:00,41.0,34.0,-100.00,NNE,30,13.0,14.0,76,0.00,,,-99.99,,2013-04-05 04:12:00,
2013-04-04 23:22:00,40.0,34.0,-100.00,NE,35,12.0,15.0,78,0.00,,,-99.99,,2013-04-05 04:22:00,
2013-04-04 23:32:00,41.0,34.0,-100.00,NNE,30,12.0,15.0,76,0.00,,,-99.99,,2013-04-05 04:32:00,
2013-04-04 23:42:00,41.0,34.0,-100.00,NNE,30,12.0,15.0,76,0.00,,,-99.99,,2013-04-05 04:42:00,
2013-04-04 23:52:00,40.0,34.0,-100.00,NE,35,12.0,14.0,78,0.00,,,-99.99,,2013-04-05 04:52:00,